createdAt,value
2023-02-12T00:01:04.047Z,85.01
2023-02-12T00:03:31.657Z,85.27
2023-02-12T00:06:03.100Z,85.54
2023-02-12T00:08:31.079Z,85.48
2023-02-12T00:10:59.025Z,85.79
2023-02-12T00:13:26.676Z,84.87
2023-02-12T00:15:54.796Z,85.61
2023-02-12T00:18:22.554Z,85.79
2023-02-12T00:20:50.098Z,85.13
2023-02-12T00:23:19.040Z,85.50
2023-02-12T00:25:46.663Z,86.19
2023-02-12T00:28:14.211Z,86.40
2023-02-12T00:30:41.992Z,85.19
2023-02-12T00:33:09.582Z,85.62
2023-02-12T00:35:37.215Z,85.44
2023-02-12T00:38:04.836Z,86.37
2023-02-12T00:40:33.744Z,86.29
2023-02-12T00:43:01.262Z,85.91
2023-02-12T00:45:28.963Z,86.23
2023-02-12T00:47:56.550Z,86.03
2023-02-12T00:50:24.108Z,86.73
2023-02-12T00:52:51.658Z,87.02
2023-02-12T00:55:19.485Z,85.96
2023-02-12T00:57:48.660Z,86.21
2023-02-12T01:00:17.247Z,86.55
2023-02-12T01:02:44.854Z,86.66
2023-02-12T01:05:12.621Z,86.18
2023-02-12T01:07:40.710Z,86.60
2023-02-12T01:10:09.591Z,86.79
2023-02-12T01:12:37.198Z,86.11
2023-02-12T01:15:07.287Z,86.26
2023-02-12T01:17:34.864Z,86.75
2023-02-12T01:20:02.449Z,86.32
2023-02-12T01:22:30.030Z,87.13
2023-02-12T01:24:57.870Z,87.24
2023-02-12T01:27:25.831Z,87.09
2023-02-12T01:29:53.889Z,86.62
2023-02-12T01:32:23.841Z,86.24
2023-02-12T01:34:51.555Z,85.86
2023-02-12T01:37:21.357Z,87.29
2023-02-12T01:39:48.955Z,87.33
2023-02-12T01:42:18.635Z,87.38
2023-02-12T01:45:06.720Z,86.54
2023-02-12T01:47:35.596Z,87.46
2023-02-12T01:50:03.208Z,86.53
2023-02-12T01:52:35.409Z,86.86
2023-02-12T01:55:08.241Z,86.89
2023-02-12T01:57:39.841Z,87.20
2023-02-12T02:00:11.617Z,86.71
2023-02-12T02:02:46.069Z,86.53
2023-02-12T02:05:21.441Z,86.87
2023-02-12T02:07:50.307Z,86.55
2023-02-12T02:10:18.195Z,86.70
2023-02-12T02:13:03.245Z,86.72
2023-02-12T02:15:32.721Z,86.97
2023-02-12T02:18:09.059Z,86.41
2023-02-12T02:21:14.078Z,86.74
2023-02-12T02:23:57.782Z,86.87
2023-02-12T02:27:00.215Z,86.74
2023-02-12T02:29:43.934Z,86.40
2023-02-12T02:32:15.740Z,87.15
2023-02-12T02:34:51.198Z,87.45
2023-02-12T02:37:24.034Z,87.46
2023-02-12T02:39:56.048Z,87.02
2023-02-12T02:42:28.544Z,87.87
2023-02-12T02:45:01.468Z,86.82
2023-02-12T02:47:35.083Z,87.00
2023-02-12T02:50:05.972Z,86.89
2023-02-12T02:52:39.075Z,86.68
2023-02-12T02:55:08.761Z,87.23
2023-02-12T02:57:40.799Z,87.14
2023-02-12T03:00:14.608Z,87.01
2023-02-12T03:02:50.312Z,87.64
2023-02-12T03:05:24.720Z,86.84
2023-02-12T03:07:57.549Z,87.44
2023-02-12T03:10:30.178Z,88.41
2023-02-12T03:13:03.447Z,88.24
2023-02-12T03:15:36.976Z,87.76
2023-02-12T03:18:11.433Z,87.34
2023-02-12T03:20:43.966Z,87.64
2023-02-12T03:23:16.143Z,88.56
2023-02-12T03:25:50.889Z,88.54
2023-02-12T03:28:22.855Z,88.22
2023-02-12T03:30:59.225Z,87.98
2023-02-12T03:33:36.885Z,88.60
2023-02-12T03:36:27.203Z,88.48
2023-02-12T03:38:57.572Z,87.82
2023-02-12T03:41:32.367Z,87.96
2023-02-12T03:44:09.152Z,88.76
2023-02-12T03:46:44.015Z,87.78
2023-02-12T03:49:21.957Z,88.25
2023-02-12T03:51:49.606Z,87.73
2023-02-12T03:54:21.028Z,87.64
2023-02-12T03:56:53.132Z,88.25
2023-02-12T03:59:21.891Z,87.75
2023-02-12T04:01:50.820Z,87.95
2023-02-12T04:04:20.580Z,88.07
2023-02-12T04:06:50.124Z,88.69
2023-02-12T04:09:18.729Z,87.89
2023-02-12T04:11:58.978Z,88.88
2023-02-12T04:14:35.846Z,88.36
2023-02-12T04:17:10.108Z,88.32
2023-02-12T04:19:49.733Z,87.97
2023-02-12T04:22:27.618Z,88.55
2023-02-12T04:25:01.893Z,88.47
2023-02-12T04:27:39.060Z,89.21
2023-02-12T04:30:10.154Z,90.01
2023-02-12T04:32:44.230Z,89.19
2023-02-12T04:35:20.183Z,88.86
2023-02-12T04:37:52.580Z,89.05
2023-02-12T04:40:22.603Z,88.89
2023-02-12T04:42:52.056Z,89.36
2023-02-12T04:45:24.161Z,88.67
2023-02-12T04:47:51.706Z,87.87
2023-02-12T04:50:21.239Z,88.47
2023-02-12T04:52:48.961Z,88.81
2023-02-12T04:55:16.934Z,89.27
2023-02-12T04:57:44.621Z,88.41
2023-02-12T05:00:15.220Z,88.54
2023-02-12T05:02:42.741Z,88.89
2023-02-12T05:05:10.362Z,88.39
2023-02-12T05:07:39.331Z,88.91
2023-02-12T05:10:08.188Z,88.58
2023-02-12T05:12:35.798Z,88.13
2023-02-12T05:15:03.354Z,88.19
2023-02-12T05:17:31.172Z,88.11
2023-02-12T05:19:58.677Z,88.68
2023-02-12T05:22:26.238Z,89.24
2023-02-12T05:24:55.100Z,88.22
2023-02-12T05:27:22.665Z,89.27
2023-02-12T05:29:50.235Z,89.54
2023-02-12T05:32:17.842Z,88.63
2023-02-12T05:34:45.509Z,89.17
2023-02-12T05:37:13.026Z,89.47
2023-02-12T05:39:40.832Z,89.05
2023-02-12T05:42:09.735Z,89.10
2023-02-12T05:44:37.349Z,89.39
2023-02-12T05:47:04.965Z,89.01
2023-02-12T05:49:32.486Z,88.41
2023-02-12T05:52:00.098Z,88.86
2023-02-12T05:54:31.010Z,89.78
2023-02-12T05:56:58.590Z,89.53
2023-02-12T05:59:27.478Z,89.18
2023-02-12T06:01:55.181Z,89.77
2023-02-12T06:04:25.016Z,90.12
2023-02-12T06:06:53.438Z,89.39
2023-02-12T06:09:21.105Z,90.26
2023-02-12T06:11:48.830Z,90.31
2023-02-12T06:14:18.440Z,89.48
2023-02-12T06:16:49.602Z,90.52
2023-02-12T06:19:17.990Z,90.24
2023-02-12T06:21:45.799Z,89.76
2023-02-12T06:24:14.645Z,89.98
2023-02-12T06:26:45.074Z,90.16
2023-02-12T06:29:13.143Z,91.16
2023-02-12T06:31:40.979Z,91.07
2023-02-12T06:34:12.317Z,90.25
2023-02-12T06:36:41.761Z,90.82
2023-02-12T06:39:09.641Z,91.01
2023-02-12T06:41:37.262Z,91.03
2023-02-12T06:44:05.160Z,91.65
2023-02-12T06:46:33.466Z,91.12
2023-02-12T06:49:02.268Z,91.28
2023-02-12T06:51:32.108Z,90.46
2023-02-12T06:53:59.701Z,90.87
2023-02-12T06:56:28.448Z,90.69
2023-02-12T06:58:58.398Z,91.07
2023-02-12T07:01:28.544Z,95.89
2023-02-12T07:03:57.704Z,89.62
2023-02-12T07:06:29.084Z,89.69
2023-02-12T07:08:58.647Z,89.29
2023-02-12T07:11:27.742Z,89.06
2023-02-12T07:13:55.614Z,88.74
2023-02-12T07:16:23.639Z,89.48
2023-02-12T07:18:51.298Z,89.25
2023-02-12T07:21:19.590Z,90.27
2023-02-12T07:23:50.970Z,89.39
2023-02-12T07:26:22.120Z,89.45
2023-02-12T07:28:50.507Z,89.96
2023-02-12T07:31:21.740Z,89.20
2023-02-12T07:33:50.328Z,89.77
2023-02-12T07:36:21.574Z,89.45
2023-02-12T07:38:49.918Z,89.96
2023-02-12T07:41:19.257Z,89.76
2023-02-12T07:43:50.206Z,89.45
2023-02-12T07:46:19.780Z,89.18
2023-02-12T07:48:48.016Z,88.36
2023-02-12T07:51:19.208Z,88.25
2023-02-12T07:53:46.896Z,87.43
2023-02-12T07:56:17.268Z,87.09
2023-02-12T07:58:46.695Z,87.05
2023-02-12T08:01:18.633Z,86.87
2023-02-12T08:03:47.128Z,86.90
2023-02-12T08:06:16.571Z,86.88
2023-02-12T08:08:44.270Z,86.36
2023-02-12T08:11:13.610Z,86.86
2023-02-12T08:13:41.847Z,85.99
2023-02-12T08:16:11.803Z,86.37
2023-02-12T08:18:42.210Z,86.41
2023-02-12T08:21:11.270Z,86.18
2023-02-12T08:23:39.355Z,85.50
2023-02-12T08:26:11.839Z,84.91
2023-02-12T08:28:42.200Z,84.45
2023-02-12T08:31:12.063Z,83.95
2023-02-12T08:33:41.081Z,83.07
2023-02-12T08:36:11.334Z,82.84
2023-02-12T08:38:40.475Z,83.04
2023-02-12T08:41:10.025Z,82.64
2023-02-12T08:43:38.561Z,80.78
2023-02-12T08:46:08.189Z,80.58
2023-02-12T08:48:35.776Z,79.87
2023-02-12T08:51:09.836Z,79.42
2023-02-12T08:53:38.772Z,79.28
2023-02-12T08:56:07.171Z,78.18
2023-02-12T08:58:35.258Z,77.61
2023-02-12T09:01:03.124Z,76.99
2023-02-12T09:03:30.702Z,76.71
2023-02-12T09:05:58.716Z,76.18
2023-02-12T09:08:27.645Z,75.25
2023-02-12T09:10:55.188Z,74.38
2023-02-12T09:13:22.751Z,74.19
2023-02-12T09:15:50.414Z,74.95
2023-02-12T09:18:18.173Z,74.25
2023-02-12T09:20:46.326Z,73.85
2023-02-12T09:23:15.753Z,73.52
2023-02-12T09:25:46.252Z,73.38
2023-02-12T09:28:15.171Z,74.36
2023-02-12T09:30:42.791Z,74.35
2023-02-12T09:33:11.804Z,74.38
2023-02-12T09:35:40.179Z,74.23
2023-02-12T09:38:08.599Z,73.14
2023-02-12T09:40:44.937Z,73.18
2023-02-12T09:43:31.742Z,73.07
2023-02-12T09:46:04.779Z,72.94
2023-02-12T09:48:49.191Z,72.82
2023-02-12T09:51:17.007Z,72.95
2023-02-12T09:53:47.545Z,72.47
2023-02-12T09:56:19.428Z,72.92
2023-02-12T09:58:52.476Z,72.13
2023-02-12T10:01:22.045Z,72.46
2023-02-12T10:03:51.529Z,72.41
2023-02-12T10:06:21.916Z,71.95
2023-02-12T10:09:26.545Z,71.28
2023-02-12T10:12:01.770Z,71.90
2023-02-12T10:15:00.986Z,70.98
2023-02-12T10:17:46.872Z,70.63
2023-02-12T10:20:47.682Z,70.27
2023-02-12T10:23:48.295Z,69.49
2023-02-12T10:26:22.867Z,69.10
2023-02-12T10:28:52.083Z,69.38
2023-02-12T10:31:30.371Z,69.64
2023-02-12T10:33:58.921Z,69.63
2023-02-12T10:36:41.029Z,69.49
2023-02-12T10:39:19.704Z,69.33
2023-02-12T10:41:54.524Z,69.94
2023-02-12T10:44:22.149Z,70.08
2023-02-12T10:46:51.117Z,70.36
2023-02-12T10:49:20.326Z,69.96
2023-02-12T10:52:10.541Z,71.12
2023-02-12T10:54:41.506Z,71.07
2023-02-12T10:57:13.616Z,70.98
2023-02-12T10:59:42.026Z,70.49
2023-02-12T11:02:35.311Z,70.50
2023-02-12T11:05:24.740Z,70.54
2023-02-12T11:07:53.234Z,70.05
2023-02-12T11:10:22.533Z,70.67
2023-02-12T11:12:50.218Z,69.34
2023-02-12T11:15:20.470Z,69.55
2023-02-12T11:17:57.825Z,69.78
2023-02-12T11:20:28.092Z,69.54
2023-02-12T11:22:59.216Z,69.75
2023-02-12T11:25:29.819Z,69.83
2023-02-12T11:28:07.747Z,69.80
2023-02-12T11:30:36.643Z,69.68
2023-02-12T11:33:23.690Z,69.79
2023-02-12T11:35:53.762Z,69.67
2023-02-12T11:38:28.818Z,69.19
2023-02-12T11:41:00.429Z,69.17
2023-02-12T11:43:30.908Z,68.59
2023-02-12T11:46:00.562Z,68.88
2023-02-12T11:48:33.267Z,68.73
2023-02-12T11:51:03.668Z,68.00
2023-02-12T11:53:34.597Z,68.69
2023-02-12T11:56:05.385Z,67.55
2023-02-12T11:58:33.066Z,67.62
2023-02-12T12:01:11.672Z,67.82
2023-02-12T12:03:47.637Z,67.36
2023-02-12T12:06:25.147Z,67.52
2023-02-12T12:08:58.399Z,67.21
2023-02-12T12:11:30.240Z,67.69
2023-02-12T12:14:04.655Z,67.23
2023-02-12T12:16:56.704Z,67.13
2023-02-12T12:19:51.375Z,68.13
2023-02-12T12:22:29.040Z,68.02
2023-02-12T12:25:01.419Z,68.03
2023-02-12T12:27:54.813Z,67.38
2023-02-12T12:30:30.264Z,67.33
2023-02-12T12:33:02.464Z,67.23
2023-02-12T12:35:45.618Z,67.00
2023-02-12T12:38:25.929Z,66.90
2023-02-12T12:41:07.530Z,66.23
2023-02-12T12:43:50.038Z,66.10
2023-02-12T12:46:35.457Z,64.01
2023-02-12T12:49:21.892Z,62.44
2023-02-12T12:52:13.223Z,60.98
2023-02-12T12:54:56.574Z,57.17
2023-02-12T12:57:39.474Z,55.27
2023-02-12T13:00:24.438Z,53.58
2023-02-12T13:03:12.686Z,53.52
2023-02-12T13:06:10.844Z,54.35
2023-02-12T13:08:56.402Z,55.83
2023-02-12T13:11:36.379Z,54.97
2023-02-12T13:14:18.669Z,53.81
2023-02-12T13:16:49.044Z,52.96
2023-02-12T13:19:25.546Z,52.43
2023-02-12T13:22:01.511Z,51.94
2023-02-12T13:24:39.727Z,52.40
2023-02-12T13:27:11.853Z,53.03
2023-02-12T13:29:44.196Z,53.00
2023-02-12T13:32:17.519Z,51.57
2023-02-12T13:34:45.433Z,51.22
2023-02-12T13:37:35.147Z,50.52
2023-02-12T13:40:08.028Z,49.84
2023-02-12T13:42:44.931Z,50.13
2023-02-12T13:45:25.787Z,50.36
2023-02-12T13:48:06.466Z,52.02
2023-02-12T13:50:42.902Z,53.53
2023-02-12T13:53:20.860Z,52.13
2023-02-12T13:56:03.052Z,51.01
2023-02-12T13:58:41.478Z,50.91
2023-02-12T14:01:12.409Z,49.27
2023-02-12T14:03:41.015Z,48.46
2023-02-12T14:06:15.335Z,47.42
2023-02-12T14:08:46.042Z,48.03
2023-02-12T14:11:17.652Z,47.55
2023-02-12T14:13:54.881Z,47.04
2023-02-12T14:16:39.705Z,47.18
2023-02-12T14:19:54.897Z,46.84
2023-02-12T14:23:00.006Z,45.78
2023-02-12T14:25:34.725Z,43.67
2023-02-12T14:28:14.139Z,41.42
2023-02-12T14:30:42.117Z,41.68
2023-02-12T14:33:21.946Z,40.88
2023-02-12T14:35:51.005Z,41.69
2023-02-12T14:39:00.455Z,41.17
2023-02-12T14:41:38.454Z,40.33
2023-02-12T14:44:42.730Z,39.78
2023-02-12T14:47:44.550Z,40.41
2023-02-12T14:50:19.752Z,40.47
2023-02-12T14:52:53.203Z,41.12
2023-02-12T14:55:26.167Z,40.73
2023-02-12T14:57:59.686Z,39.76
2023-02-12T15:00:31.002Z,40.08
2023-02-12T15:03:08.269Z,41.52
2023-02-12T15:05:42.242Z,43.20
2023-02-12T15:08:19.486Z,43.55
2023-02-12T15:10:51.206Z,44.18
2023-02-12T15:13:25.926Z,45.27
2023-02-12T15:15:56.617Z,47.74
2023-02-12T15:18:39.167Z,47.67
2023-02-12T15:21:14.875Z,48.57
2023-02-12T15:23:44.271Z,49.20
2023-02-12T15:26:15.523Z,49.94
2023-02-12T15:28:46.560Z,50.95
2023-02-12T15:31:17.856Z,51.87
2023-02-12T15:33:50.057Z,51.92
2023-02-12T15:36:20.216Z,52.66
2023-02-12T15:38:51.369Z,52.96
2023-02-12T15:41:28.465Z,53.45
2023-02-12T15:43:56.316Z,53.87
2023-02-12T15:46:24.703Z,53.51
2023-02-12T15:48:55.485Z,55.13
2023-02-12T15:51:29.438Z,55.82
2023-02-12T15:53:59.381Z,57.22
2023-02-12T15:56:28.167Z,58.70
2023-02-12T15:58:57.749Z,59.03
2023-02-12T16:01:27.977Z,59.31
2023-02-12T16:03:59.021Z,59.64
2023-02-12T16:06:29.338Z,60.64
2023-02-12T16:09:02.877Z,61.82
2023-02-12T16:11:33.105Z,62.21
2023-02-12T16:14:03.493Z,62.42
2023-02-12T16:16:40.126Z,62.49
2023-02-12T16:19:20.246Z,63.11
2023-02-12T16:21:49.601Z,63.49
2023-02-12T16:24:26.847Z,64.21
2023-02-12T16:26:55.054Z,64.93
2023-02-12T16:29:23.022Z,64.93
2023-02-12T16:31:56.052Z,65.33
2023-02-12T16:34:37.576Z,66.15
2023-02-12T16:37:43.292Z,66.45
2023-02-12T16:40:22.396Z,66.57
2023-02-12T16:43:02.609Z,67.53
2023-02-12T16:45:38.612Z,68.27
2023-02-12T16:48:17.514Z,68.17
2023-02-12T16:50:50.184Z,69.08
2023-02-12T16:53:36.598Z,69.91
2023-02-12T16:56:05.739Z,70.44
2023-02-12T16:58:33.499Z,70.83
2023-02-12T17:01:04.900Z,71.96
2023-02-12T17:03:32.671Z,72.92
2023-02-12T17:06:01.686Z,72.71
2023-02-12T17:08:29.269Z,73.34
2023-02-12T17:10:56.873Z,73.89
2023-02-12T17:13:24.424Z,74.50
2023-02-12T17:15:55.290Z,75.03
2023-02-12T17:18:23.695Z,75.69
2023-02-12T17:20:55.581Z,75.61
2023-02-12T17:23:25.071Z,76.28
2023-02-12T17:25:53.530Z,76.56
2023-02-12T17:28:22.799Z,77.07
2023-02-12T17:30:50.502Z,77.37
2023-02-12T17:33:18.258Z,77.76
2023-02-12T17:35:46.447Z,82.22
2023-02-12T17:38:14.077Z,82.81
2023-02-12T17:40:42.943Z,80.51
2023-02-12T17:43:10.803Z,80.38
2023-02-12T17:45:43.015Z,80.23
2023-02-12T17:48:11.231Z,80.59
2023-02-12T17:50:39.907Z,81.01
2023-02-12T17:53:08.759Z,81.18
2023-02-12T17:55:39.579Z,81.99
2023-02-12T17:58:08.675Z,81.97
2023-02-12T18:00:36.328Z,81.29
2023-02-12T18:03:03.990Z,81.83
2023-02-12T18:05:31.637Z,82.44
2023-02-12T18:07:59.659Z,82.61
2023-02-12T18:10:27.314Z,83.16
2023-02-12T18:12:55.260Z,83.48
2023-02-12T18:15:24.155Z,84.62
2023-02-12T18:17:51.891Z,84.59
2023-02-12T18:20:19.596Z,83.90
2023-02-12T18:22:47.407Z,83.55
2023-02-12T18:25:15.933Z,84.41
2023-02-12T18:27:44.341Z,85.28
2023-02-12T18:30:12.647Z,85.10
2023-02-12T18:32:41.674Z,85.54
2023-02-12T18:35:10.204Z,85.22
2023-02-12T18:37:37.915Z,84.87
2023-02-12T18:40:05.854Z,85.30
2023-02-12T18:42:33.406Z,86.36
2023-02-12T18:45:01.003Z,85.71
2023-02-12T18:47:28.678Z,85.88
2023-02-12T18:49:57.904Z,86.01
2023-02-12T18:52:25.924Z,86.49
2023-02-12T18:54:53.502Z,86.36
2023-02-12T18:57:21.226Z,87.23
2023-02-12T18:59:48.847Z,87.45
2023-02-12T19:02:16.454Z,87.13
2023-02-12T19:04:44.126Z,87.87
2023-02-12T19:07:13.074Z,88.90
2023-02-12T19:09:40.737Z,87.82
2023-02-12T19:12:08.914Z,87.86
2023-02-12T19:14:36.667Z,86.96
2023-02-12T19:17:04.219Z,88.21
2023-02-12T19:19:31.852Z,88.10
2023-02-12T19:21:59.582Z,89.22
2023-02-12T19:24:37.750Z,88.62
2023-02-12T19:27:12.157Z,88.99
2023-02-12T19:29:39.714Z,89.79
2023-02-12T19:32:07.437Z,88.22
2023-02-12T19:34:35.154Z,88.53
2023-02-12T19:37:02.864Z,90.85
2023-02-12T19:39:32.416Z,90.35
2023-02-12T19:42:00.014Z,90.99
2023-02-12T19:44:27.592Z,90.91
2023-02-12T19:46:56.432Z,90.62
2023-02-12T19:49:25.914Z,89.65
2023-02-12T19:51:54.012Z,90.02
2023-02-12T19:54:23.907Z,89.75
2023-02-12T19:56:53.684Z,89.74
2023-02-12T19:59:24.701Z,89.31
2023-02-12T20:01:52.611Z,89.97
2023-02-12T20:04:23.704Z,89.45
2023-02-12T20:06:52.325Z,90.42
2023-02-12T20:09:21.416Z,91.21
2023-02-12T20:11:48.993Z,90.22
2023-02-12T20:14:18.162Z,89.94
2023-02-12T20:16:47.511Z,89.16
2023-02-12T20:19:19.258Z,90.82
2023-02-12T20:21:48.722Z,91.10
2023-02-12T20:24:16.526Z,91.25
2023-02-12T20:26:44.068Z,91.29
2023-02-12T20:29:11.680Z,92.24
2023-02-12T20:31:40.765Z,92.43
2023-02-12T20:34:10.037Z,92.83
2023-02-12T20:36:40.170Z,93.94
2023-02-12T20:39:11.958Z,94.41
2023-02-12T20:41:39.551Z,93.18
2023-02-12T20:44:08.801Z,94.24
2023-02-12T20:46:39.363Z,94.34
2023-02-12T20:49:08.916Z,94.51
2023-02-12T20:51:36.847Z,93.67
2023-02-12T20:54:05.079Z,95.02
2023-02-12T20:56:34.010Z,94.81
2023-02-12T20:59:01.848Z,94.30
2023-02-12T21:01:34.541Z,95.04
2023-02-12T21:04:04.333Z,94.92
2023-02-12T21:06:34.217Z,95.10
2023-02-12T21:09:02.011Z,95.27
2023-02-12T21:11:30.680Z,94.88
2023-02-12T21:14:18.410Z,94.85
2023-02-12T21:16:47.531Z,95.28
2023-02-12T21:19:15.097Z,94.87
2023-02-12T21:21:45.448Z,95.47
2023-02-12T21:24:16.173Z,95.72
2023-02-12T21:26:44.251Z,95.14
2023-02-12T21:29:11.965Z,96.18
2023-02-12T21:31:41.982Z,96.51
2023-02-12T21:34:13.186Z,96.47
2023-02-12T21:36:42.121Z,96.51
2023-02-12T21:39:13.260Z,96.48
2023-02-12T21:41:42.705Z,96.82
2023-02-12T21:44:13.638Z,96.50
2023-02-12T21:46:42.241Z,95.78
2023-02-12T21:49:10.256Z,96.15
2023-02-12T21:51:40.189Z,96.41
2023-02-12T21:54:10.770Z,95.80
2023-02-12T21:56:41.634Z,96.56
2023-02-12T21:59:10.312Z,96.45
2023-02-12T22:01:46.152Z,96.33
2023-02-12T22:04:14.187Z,96.55
2023-02-12T22:06:43.679Z,96.25
2023-02-12T22:09:13.416Z,96.75
2023-02-12T22:11:43.484Z,96.16
2023-02-12T22:14:14.041Z,96.35
2023-02-12T22:16:41.766Z,96.11
2023-02-12T22:19:09.743Z,97.13
2023-02-12T22:21:39.424Z,97.56
2023-02-12T22:24:09.105Z,96.96
2023-02-12T22:26:37.013Z,96.90
2023-02-12T22:29:07.535Z,96.67
2023-02-12T22:31:38.225Z,96.54
2023-02-12T22:34:07.378Z,96.49
2023-02-12T22:36:36.360Z,96.70
2023-02-12T22:39:04.654Z,96.72
2023-02-12T22:41:32.747Z,96.85
2023-02-12T22:44:01.461Z,97.03
2023-02-12T22:46:30.389Z,97.18
2023-02-12T22:48:58.044Z,97.79
2023-02-12T22:51:28.482Z,96.90
2023-02-12T22:53:56.739Z,97.86
2023-02-12T22:56:24.364Z,97.45
2023-02-12T22:58:55.869Z,97.37
2023-02-12T23:01:24.129Z,97.75
2023-02-12T23:03:53.440Z,97.92
2023-02-12T23:06:22.879Z,97.54
2023-02-12T23:08:51.576Z,97.35
2023-02-12T23:11:19.949Z,98.31
2023-02-12T23:13:47.921Z,97.49
2023-02-12T23:16:15.527Z,98.20
2023-02-12T23:18:43.532Z,98.04
2023-02-12T23:21:12.745Z,97.99
2023-02-12T23:23:40.455Z,97.49
2023-02-12T23:26:08.211Z,97.64
2023-02-12T23:28:35.934Z,97.69
2023-02-12T23:31:03.817Z,97.40
2023-02-12T23:33:31.470Z,97.47
2023-02-12T23:35:59.051Z,98.16
2023-02-12T23:38:27.965Z,98.22
2023-02-12T23:40:55.972Z,97.87
2023-02-12T23:43:23.700Z,97.66
2023-02-12T23:45:51.257Z,97.10
2023-02-12T23:48:19.647Z,96.73
2023-02-12T23:50:50.340Z,96.43
2023-02-12T23:53:18.986Z,96.32
2023-02-12T23:55:50.908Z,96.34
2023-02-12T23:58:18.481Z,96.74
